Bismarck, North Dakota
Current Conditions -  °F | °C
As of 3:52 PM on Sunday 25 Jan 2015 (Local Time) from KBIS Reporting Station
Overcast Overcast  
Wind Chill: 33°   Ceiling: 1700
Heat Index: 37°   Visibility: 10mi
Dew Point: 32°   Wind: 5mph
Humidity: 82%   Direction: 210°SSW
Pressure: 29.93"   Gusts: NA
Location:  46.81°N, 100.77°W
Report Text: KBIS 252152Z AUTO 21004KT 10SM OVC017 03/00 A2993 RMK AO2 SLP151 T00280000
Loading
Personal Weather Stations






























Interactive Weather Map New forecast layout! Learn more

10-Day Weather Forecast

Advertisements
Track Severe Weather on mobile